sensor_id;sensor_type;location;lat;lon;timestamp;P1;durP1;ratioP1;P2;durP2;ratioP2
22007;SDS011;11168;56.976;24.168;2022-08-01T00:00:19;3.88;;;2.50;;
22007;SDS011;11168;56.976;24.168;2022-08-01T00:02:47;4.25;;;2.08;;
22007;SDS011;11168;56.976;24.168;2022-08-01T00:05:15;4.45;;;2.00;;
22007;SDS011;11168;56.976;24.168;2022-08-01T00:07:43;3.63;;;2.00;;
22007;SDS011;11168;56.976;24.168;2022-08-01T00:10:11;3.58;;;2.20;;
22007;SDS011;11168;56.976;24.168;2022-08-01T00:12:39;2.92;;;2.10;;
22007;SDS011;11168;56.976;24.168;2022-08-01T00:15:08;3.88;;;2.03;;
22007;SDS011;11168;56.976;24.168;2022-08-01T00:17:36;4.00;;;2.35;;
22007;SDS011;11168;56.976;24.168;2022-08-01T00:20:04;4.00;;;2.47;;
22007;SDS011;11168;56.976;24.168;2022-08-01T00:22:32;4.57;;;2.17;;
22007;SDS011;11168;56.976;24.168;2022-08-01T00:24:59;4.35;;;2.42;;
22007;SDS011;11168;56.976;24.168;2022-08-01T00:27:27;4.10;;;2.30;;
22007;SDS011;11168;56.976;24.168;2022-08-01T00:29:54;3.42;;;2.10;;
22007;SDS011;11168;56.976;24.168;2022-08-01T00:32:39;2.40;;;2.20;;
22007;SDS011;11168;56.976;24.168;2022-08-01T00:35:06;6.32;;;2.47;;
22007;SDS011;11168;56.976;24.168;2022-08-01T00:37:34;4.80;;;2.47;;
22007;SDS011;11168;56.976;24.168;2022-08-01T00:40:01;5.25;;;2.70;;
22007;SDS011;11168;56.976;24.168;2022-08-01T00:42:29;4.60;;;2.58;;
22007;SDS011;11168;56.976;24.168;2022-08-01T00:44:56;2.92;;;2.55;;
22007;SDS011;11168;56.976;24.168;2022-08-01T00:47:23;5.50;;;2.88;;
22007;SDS011;11168;56.976;24.168;2022-08-01T00:49:51;4.63;;;2.70;;
22007;SDS011;11168;56.976;24.168;2022-08-01T00:52:18;3.60;;;2.63;;
22007;SDS011;11168;56.976;24.168;2022-08-01T00:54:45;4.43;;;2.53;;
22007;SDS011;11168;56.976;24.168;2022-08-01T00:57:13;3.33;;;2.78;;
22007;SDS011;11168;56.976;24.168;2022-08-01T00:59:40;3.60;;;2.78;;
22007;SDS011;11168;56.976;24.168;2022-08-01T01:02:08;4.32;;;2.90;;
22007;SDS011;11168;56.976;24.168;2022-08-01T01:04:41;4.68;;;2.75;;
22007;SDS011;11168;56.976;24.168;2022-08-01T01:09:44;5.97;;;3.28;;
22007;SDS011;11168;56.976;24.168;2022-08-01T01:17:16;5.35;;;2.95;;
22007;SDS011;11168;56.976;24.168;2022-08-01T01:20:04;4.10;;;3.00;;
22007;SDS011;11168;56.976;24.168;2022-08-01T01:22:36;4.95;;;3.47;;
22007;SDS011;11168;56.976;24.168;2022-08-01T01:30:35;4.20;;;3.35;;
22007;SDS011;11168;56.976;24.168;2022-08-01T01:33:05;3.72;;;3.40;;
22007;SDS011;11168;56.976;24.168;2022-08-01T01:35:34;4.50;;;3.10;;
22007;SDS011;11168;56.976;24.168;2022-08-01T01:38:09;6.15;;;3.53;;
22007;SDS011;11168;56.976;24.168;2022-08-01T01:40:37;4.05;;;3.60;;
22007;SDS011;11168;56.976;24.168;2022-08-01T01:43:05;4.47;;;3.40;;
22007;SDS011;11168;56.976;24.168;2022-08-01T01:45:36;5.93;;;3.78;;
22007;SDS011;11168;56.976;24.168;2022-08-01T01:48:04;5.00;;;3.63;;
22007;SDS011;11168;56.976;24.168;2022-08-01T01:50:33;5.07;;;3.80;;
22007;SDS011;11168;56.976;24.168;2022-08-01T01:53:01;4.95;;;4.07;;
22007;SDS011;11168;56.976;24.168;2022-08-01T01:55:29;7.25;;;4.18;;
22007;SDS011;11168;56.976;24.168;2022-08-01T01:57:57;5.55;;;3.50;;
22007;SDS011;11168;56.976;24.168;2022-08-01T02:00:25;5.95;;;4.20;;
22007;SDS011;11168;56.976;24.168;2022-08-01T02:02:53;8.00;;;4.00;;
22007;SDS011;11168;56.976;24.168;2022-08-01T02:05:23;5.97;;;3.60;;
22007;SDS011;11168;56.976;24.168;2022-08-01T02:07:51;4.68;;;4.13;;
22007;SDS011;11168;56.976;24.168;2022-08-01T02:10:24;4.63;;;4.13;;
22007;SDS011;11168;56.976;24.168;2022-08-01T02:12:53;7.93;;;4.70;;
22007;SDS011;11168;56.976;24.168;2022-08-01T02:15:22;5.85;;;4.30;;
22007;SDS011;11168;56.976;24.168;2022-08-01T02:17:50;6.30;;;4.60;;
22007;SDS011;11168;56.976;24.168;2022-08-01T02:20:17;6.55;;;4.97;;
22007;SDS011;11168;56.976;24.168;2022-08-01T02:22:50;6.00;;;5.07;;
22007;SDS011;11168;56.976;24.168;2022-08-01T02:25:25;5.80;;;4.75;;
22007;SDS011;11168;56.976;24.168;2022-08-01T02:27:59;6.13;;;4.65;;
22007;SDS011;11168;56.976;24.168;2022-08-01T02:30:31;4.97;;;4.28;;
22007;SDS011;11168;56.976;24.168;2022-08-01T02:33:02;4.83;;;4.33;;
22007;SDS011;11168;56.976;24.168;2022-08-01T02:35:32;8.98;;;5.35;;
22007;SDS011;11168;56.976;24.168;2022-08-01T02:38:22;8.75;;;4.57;;
22007;SDS011;11168;56.976;24.168;2022-08-01T02:40:50;7.07;;;4.45;;
22007;SDS011;11168;56.976;24.168;2022-08-01T02:43:21;5.22;;;4.43;;
22007;SDS011;11168;56.976;24.168;2022-08-01T02:45:53;5.63;;;4.22;;
22007;SDS011;11168;56.976;24.168;2022-08-01T02:48:21;7.13;;;4.30;;
22007;SDS011;11168;56.976;24.168;2022-08-01T02:50:51;6.32;;;3.75;;
22007;SDS011;11168;56.976;24.168;2022-08-01T02:53:21;6.55;;;4.47;;
22007;SDS011;11168;56.976;24.168;2022-08-01T02:56:09;4.70;;;4.18;;
22007;SDS011;11168;56.976;24.168;2022-08-01T02:58:38;5.38;;;4.38;;
22007;SDS011;11168;56.976;24.168;2022-08-01T03:01:06;5.88;;;4.38;;
22007;SDS011;11168;56.976;24.168;2022-08-01T03:03:34;7.40;;;3.70;;
22007;SDS011;11168;56.976;24.168;2022-08-01T03:06:02;4.70;;;4.05;;
22007;SDS011;11168;56.976;24.168;2022-08-01T03:08:29;4.72;;;3.63;;
22007;SDS011;11168;56.976;24.168;2022-08-01T03:10:57;4.70;;;3.80;;
22007;SDS011;11168;56.976;24.168;2022-08-01T03:13:26;5.57;;;3.45;;
22007;SDS011;11168;56.976;24.168;2022-08-01T03:15:54;4.70;;;3.75;;
22007;SDS011;11168;56.976;24.168;2022-08-01T03:18:23;4.32;;;3.80;;
22007;SDS011;11168;56.976;24.168;2022-08-01T03:20:52;4.65;;;3.90;;
22007;SDS011;11168;56.976;24.168;2022-08-01T03:23:21;3.97;;;3.55;;
22007;SDS011;11168;56.976;24.168;2022-08-01T03:26:03;3.90;;;3.25;;
22007;SDS011;11168;56.976;24.168;2022-08-01T03:28:32;4.97;;;3.63;;
22007;SDS011;11168;56.976;24.168;2022-08-01T03:30:59;4.30;;;3.22;;
22007;SDS011;11168;56.976;24.168;2022-08-01T03:33:27;4.78;;;3.15;;
22007;SDS011;11168;56.976;24.168;2022-08-01T03:35:54;3.75;;;3.25;;
22007;SDS011;11168;56.976;24.168;2022-08-01T03:38:23;6.88;;;3.50;;
22007;SDS011;11168;56.976;24.168;2022-08-01T03:43:30;5.10;;;3.17;;
22007;SDS011;11168;56.976;24.168;2022-08-01T03:46:03;4.07;;;2.80;;
22007;SDS011;11168;56.976;24.168;2022-08-01T03:48:35;5.00;;;2.95;;
22007;SDS011;11168;56.976;24.168;2022-08-01T03:51:03;4.80;;;3.25;;
22007;SDS011;11168;56.976;24.168;2022-08-01T03:53:32;9.25;;;2.78;;
22007;SDS011;11168;56.976;24.168;2022-08-01T03:56:00;4.15;;;2.70;;
22007;SDS011;11168;56.976;24.168;2022-08-01T03:58:29;5.00;;;3.10;;
22007;SDS011;11168;56.976;24.168;2022-08-01T04:00:57;4.15;;;3.28;;
22007;SDS011;11168;56.976;24.168;2022-08-01T04:03:25;4.07;;;3.00;;
22007;SDS011;11168;56.976;24.168;2022-08-01T04:05:52;5.32;;;2.78;;
22007;SDS011;11168;56.976;24.168;2022-08-01T04:08:20;4.10;;;2.78;;
22007;SDS011;11168;56.976;24.168;2022-08-01T04:10:55;7.40;;;3.17;;
22007;SDS011;11168;56.976;24.168;2022-08-01T04:13:22;4.32;;;3.08;;
22007;SDS011;11168;56.976;24.168;2022-08-01T04:15:54;4.50;;;2.92;;
22007;SDS011;11168;56.976;24.168;2022-08-01T04:18:21;3.30;;;3.00;;
22007;SDS011;11168;56.976;24.168;2022-08-01T04:20:48;3.55;;;2.70;;
22007;SDS011;11168;56.976;24.168;2022-08-01T04:23:20;3.97;;;2.53;;
22007;SDS011;11168;56.976;24.168;2022-08-01T04:25:49;3.25;;;2.65;;
22007;SDS011;11168;56.976;24.168;2022-08-01T04:28:17;3.22;;;2.22;;
22007;SDS011;11168;56.976;24.168;2022-08-01T04:30:46;3.65;;;2.10;;
22007;SDS011;11168;56.976;24.168;2022-08-01T04:33:16;2.55;;;2.15;;
22007;SDS011;11168;56.976;24.168;2022-08-01T04:35:45;4.90;;;1.65;;
22007;SDS011;11168;56.976;24.168;2022-08-01T04:38:30;3.20;;;1.95;;
22007;SDS011;11168;56.976;24.168;2022-08-01T04:40:58;1.92;;;1.58;;
22007;SDS011;11168;56.976;24.168;2022-08-01T04:43:34;1.90;;;1.63;;
22007;SDS011;11168;56.976;24.168;2022-08-01T04:46:02;3.70;;;1.50;;
22007;SDS011;11168;56.976;24.168;2022-08-01T04:48:33;1.58;;;1.27;;
22007;SDS011;11168;56.976;24.168;2022-08-01T04:51:01;2.35;;;1.60;;
22007;SDS011;11168;56.976;24.168;2022-08-01T04:53:28;2.90;;;1.50;;
22007;SDS011;11168;56.976;24.168;2022-08-01T04:55:58;1.92;;;1.50;;
22007;SDS011;11168;56.976;24.168;2022-08-01T04:58:26;2.03;;;1.67;;
22007;SDS011;11168;56.976;24.168;2022-08-01T05:00:54;2.97;;;1.70;;
22007;SDS011;11168;56.976;24.168;2022-08-01T05:03:21;2.72;;;1.90;;
22007;SDS011;11168;56.976;24.168;2022-08-01T05:05:48;2.55;;;1.73;;
22007;SDS011;11168;56.976;24.168;2022-08-01T05:08:16;2.47;;;1.90;;
22007;SDS011;11168;56.976;24.168;2022-08-01T05:10:43;3.05;;;1.77;;
22007;SDS011;11168;56.976;24.168;2022-08-01T05:13:11;1.73;;;1.63;;
22007;SDS011;11168;56.976;24.168;2022-08-01T05:15:38;3.38;;;2.15;;
22007;SDS011;11168;56.976;24.168;2022-08-01T05:18:05;2.42;;;1.65;;
22007;SDS011;11168;56.976;24.168;2022-08-01T05:20:33;3.50;;;1.80;;
22007;SDS011;11168;56.976;24.168;2022-08-01T05:23:01;2.10;;;1.90;;
22007;SDS011;11168;56.976;24.168;2022-08-01T05:25:28;2.08;;;1.83;;
22007;SDS011;11168;56.976;24.168;2022-08-01T05:28:16;4.03;;;2.25;;
22007;SDS011;11168;56.976;24.168;2022-08-01T05:30:44;2.00;;;1.77;;
22007;SDS011;11168;56.976;24.168;2022-08-01T05:33:11;2.35;;;2.03;;
22007;SDS011;11168;56.976;24.168;2022-08-01T05:35:39;3.60;;;2.20;;
22007;SDS011;11168;56.976;24.168;2022-08-01T05:38:14;3.05;;;2.13;;
22007;SDS011;11168;56.976;24.168;2022-08-01T05:40:41;2.33;;;2.05;;
22007;SDS011;11168;56.976;24.168;2022-08-01T05:43:09;3.40;;;2.22;;
22007;SDS011;11168;56.976;24.168;2022-08-01T05:45:36;2.55;;;1.95;;
22007;SDS011;11168;56.976;24.168;2022-08-01T05:48:03;2.75;;;1.90;;
22007;SDS011;11168;56.976;24.168;2022-08-01T05:50:31;4.30;;;2.10;;
22007;SDS011;11168;56.976;24.168;2022-08-01T05:53:00;2.80;;;1.92;;
22007;SDS011;11168;56.976;24.168;2022-08-01T05:55:27;3.42;;;2.20;;
22007;SDS011;11168;56.976;24.168;2022-08-01T05:57:54;2.55;;;1.85;;
22007;SDS011;11168;56.976;24.168;2022-08-01T06:00:22;2.90;;;2.10;;
22007;SDS011;11168;56.976;24.168;2022-08-01T06:02:49;4.05;;;1.90;;
22007;SDS011;11168;56.976;24.168;2022-08-01T06:05:16;1.90;;;1.80;;
22007;SDS011;11168;56.976;24.168;2022-08-01T06:07:44;3.35;;;1.85;;
22007;SDS011;11168;56.976;24.168;2022-08-01T06:10:11;2.08;;;1.70;;
22007;SDS011;11168;56.976;24.168;2022-08-01T06:12:38;1.90;;;1.80;;
22007;SDS011;11168;56.976;24.168;2022-08-01T06:15:06;3.50;;;2.00;;
22007;SDS011;11168;56.976;24.168;2022-08-01T06:17:33;1.58;;;1.48;;
22007;SDS011;11168;56.976;24.168;2022-08-01T06:20:01;1.70;;;1.60;;
22007;SDS011;11168;56.976;24.168;2022-08-01T06:22:29;2.63;;;1.40;;
22007;SDS011;11168;56.976;24.168;2022-08-01T06:24:56;1.95;;;1.70;;
22007;SDS011;11168;56.976;24.168;2022-08-01T06:27:24;1.70;;;1.40;;
22007;SDS011;11168;56.976;24.168;2022-08-01T06:29:52;1.65;;;1.55;;
22007;SDS011;11168;56.976;24.168;2022-08-01T06:32:22;1.50;;;1.40;;
22007;SDS011;11168;56.976;24.168;2022-08-01T06:34:53;1.63;;;1.40;;
22007;SDS011;11168;56.976;24.168;2022-08-01T06:37:20;2.65;;;1.88;;
22007;SDS011;11168;56.976;24.168;2022-08-01T06:39:48;1.63;;;1.35;;
22007;SDS011;11168;56.976;24.168;2022-08-01T06:42:16;1.73;;;1.40;;
22007;SDS011;11168;56.976;24.168;2022-08-01T06:44:44;1.45;;;1.33;;
22007;SDS011;11168;56.976;24.168;2022-08-01T06:47:11;4.00;;;1.63;;
22007;SDS011;11168;56.976;24.168;2022-08-01T06:49:38;1.42;;;1.33;;
22007;SDS011;11168;56.976;24.168;2022-08-01T06:52:06;3.75;;;2.10;;
22007;SDS011;11168;56.976;24.168;2022-08-01T06:54:34;3.05;;;1.70;;
22007;SDS011;11168;56.976;24.168;2022-08-01T06:57:04;2.30;;;1.20;;
22007;SDS011;11168;56.976;24.168;2022-08-01T06:59:32;1.55;;;1.33;;
22007;SDS011;11168;56.976;24.168;2022-08-01T07:01:59;1.92;;;1.30;;
22007;SDS011;11168;56.976;24.168;2022-08-01T07:04:27;2.30;;;1.52;;
22007;SDS011;11168;56.976;24.168;2022-08-01T07:06:55;1.30;;;1.20;;
22007;SDS011;11168;56.976;24.168;2022-08-01T07:09:22;2.08;;;1.38;;
22007;SDS011;11168;56.976;24.168;2022-08-01T07:11:49;1.52;;;1.42;;
22007;SDS011;11168;56.976;24.168;2022-08-01T07:14:18;2.00;;;1.80;;
22007;SDS011;11168;56.976;24.168;2022-08-01T07:16:46;1.50;;;1.40;;
22007;SDS011;11168;56.976;24.168;2022-08-01T07:19:13;4.30;;;1.30;;
22007;SDS011;11168;56.976;24.168;2022-08-01T07:21:40;1.52;;;1.42;;
22007;SDS011;11168;56.976;24.168;2022-08-01T07:24:12;1.50;;;1.40;;
22007;SDS011;11168;56.976;24.168;2022-08-01T07:26:41;2.58;;;1.38;;
22007;SDS011;11168;56.976;24.168;2022-08-01T07:29:19;1.40;;;1.30;;
22007;SDS011;11168;56.976;24.168;2022-08-01T07:31:46;2.67;;;1.30;;
22007;SDS011;11168;56.976;24.168;2022-08-01T07:34:14;2.30;;;1.80;;
22007;SDS011;11168;56.976;24.168;2022-08-01T07:36:42;3.45;;;1.70;;
22007;SDS011;11168;56.976;24.168;2022-08-01T07:39:09;2.70;;;1.80;;
22007;SDS011;11168;56.976;24.168;2022-08-01T07:41:36;2.00;;;1.80;;
22007;SDS011;11168;56.976;24.168;2022-08-01T07:44:23;3.55;;;2.47;;
22007;SDS011;11168;56.976;24.168;2022-08-01T07:46:54;1.50;;;1.40;;
22007;SDS011;11168;56.976;24.168;2022-08-01T07:49:21;2.53;;;1.90;;
22007;SDS011;11168;56.976;24.168;2022-08-01T07:51:49;1.73;;;1.50;;
22007;SDS011;11168;56.976;24.168;2022-08-01T07:54:30;2.00;;;1.60;;
22007;SDS011;11168;56.976;24.168;2022-08-01T07:56:59;1.70;;;1.60;;
22007;SDS011;11168;56.976;24.168;2022-08-01T07:59:26;3.95;;;1.83;;
22007;SDS011;11168;56.976;24.168;2022-08-01T08:01:53;2.67;;;2.03;;
22007;SDS011;11168;56.976;24.168;2022-08-01T08:04:21;2.75;;;1.98;;
22007;SDS011;11168;56.976;24.168;2022-08-01T08:06:48;2.13;;;1.98;;
22007;SDS011;11168;56.976;24.168;2022-08-01T08:09:16;2.00;;;1.80;;
22007;SDS011;11168;56.976;24.168;2022-08-01T08:11:43;2.75;;;1.90;;
22007;SDS011;11168;56.976;24.168;2022-08-01T08:14:13;2.38;;;1.80;;
22007;SDS011;11168;56.976;24.168;2022-08-01T08:16:41;2.35;;;1.70;;
22007;SDS011;11168;56.976;24.168;2022-08-01T08:19:09;4.68;;;1.90;;
22007;SDS011;11168;56.976;24.168;2022-08-01T08:21:36;2.25;;;1.98;;
22007;SDS011;11168;56.976;24.168;2022-08-01T08:24:04;4.28;;;2.25;;
22007;SDS011;11168;56.976;24.168;2022-08-01T08:26:55;2.80;;;2.17;;
22007;SDS011;11168;56.976;24.168;2022-08-01T08:29:23;3.22;;;2.53;;
22007;SDS011;11168;56.976;24.168;2022-08-01T08:31:52;2.97;;;1.95;;
22007;SDS011;11168;56.976;24.168;2022-08-01T08:34:22;4.20;;;2.30;;
22007;SDS011;11168;56.976;24.168;2022-08-01T08:36:50;2.72;;;2.30;;
22007;SDS011;11168;56.976;24.168;2022-08-01T08:39:18;2.50;;;2.15;;
22007;SDS011;11168;56.976;24.168;2022-08-01T08:41:46;2.30;;;2.10;;
22007;SDS011;11168;56.976;24.168;2022-08-01T08:44:15;2.58;;;1.67;;
22007;SDS011;11168;56.976;24.168;2022-08-01T08:46:44;3.30;;;2.55;;
22007;SDS011;11168;56.976;24.168;2022-08-01T08:49:12;4.82;;;2.22;;
22007;SDS011;11168;56.976;24.168;2022-08-01T08:51:42;2.20;;;2.00;;
22007;SDS011;11168;56.976;24.168;2022-08-01T08:54:11;2.88;;;1.83;;
22007;SDS011;11168;56.976;24.168;2022-08-01T08:56:41;3.15;;;2.20;;
22007;SDS011;11168;56.976;24.168;2022-08-01T08:59:10;2.53;;;2.33;;
22007;SDS011;11168;56.976;24.168;2022-08-01T09:01:39;2.20;;;2.10;;
22007;SDS011;11168;56.976;24.168;2022-08-01T09:04:06;1.90;;;1.80;;
22007;SDS011;11168;56.976;24.168;2022-08-01T09:06:34;2.47;;;1.80;;
22007;SDS011;11168;56.976;24.168;2022-08-01T09:09:02;4.70;;;1.90;;
22007;SDS011;11168;56.976;24.168;2022-08-01T09:11:29;2.85;;;1.92;;
22007;SDS011;11168;56.976;24.168;2022-08-01T09:16:33;1.90;;;1.80;;
22007;SDS011;11168;56.976;24.168;2022-08-01T09:19:19;1.73;;;1.63;;
22007;SDS011;11168;56.976;24.168;2022-08-01T09:22:06;2.95;;;1.95;;
22007;SDS011;11168;56.976;24.168;2022-08-01T09:24:37;2.83;;;2.00;;
22007;SDS011;11168;56.976;24.168;2022-08-01T09:29:33;2.80;;;1.55;;
22007;SDS011;11168;56.976;24.168;2022-08-01T09:32:06;2.57;;;1.50;;
22007;SDS011;11168;56.976;24.168;2022-08-01T09:34:41;1.70;;;1.60;;
22007;SDS011;11168;56.976;24.168;2022-08-01T09:37:11;4.15;;;1.58;;
22007;SDS011;11168;56.976;24.168;2022-08-01T09:39:49;2.88;;;2.00;;
22007;SDS011;11168;56.976;24.168;2022-08-01T09:42:25;4.13;;;2.17;;
22007;SDS011;11168;56.976;24.168;2022-08-01T09:44:54;2.05;;;1.92;;
22007;SDS011;11168;56.976;24.168;2022-08-01T09:47:22;2.70;;;1.90;;
22007;SDS011;11168;56.976;24.168;2022-08-01T09:50:04;2.55;;;1.88;;
22007;SDS011;11168;56.976;24.168;2022-08-01T09:52:36;2.38;;;2.17;;
22007;SDS011;11168;56.976;24.168;2022-08-01T09:55:06;2.55;;;1.90;;
22007;SDS011;11168;56.976;24.168;2022-08-01T09:57:34;2.00;;;1.90;;
22007;SDS011;11168;56.976;24.168;2022-08-01T10:00:02;2.10;;;1.67;;
22007;SDS011;11168;56.976;24.168;2022-08-01T10:02:34;2.58;;;1.73;;
22007;SDS011;11168;56.976;24.168;2022-08-01T10:05:03;2.55;;;2.35;;
22007;SDS011;11168;56.976;24.168;2022-08-01T10:07:34;6.97;;;2.30;;
22007;SDS011;11168;56.976;24.168;2022-08-01T10:10:13;2.65;;;2.45;;
22007;SDS011;11168;56.976;24.168;2022-08-01T10:12:41;6.00;;;2.60;;
22007;SDS011;11168;56.976;24.168;2022-08-01T10:15:10;3.20;;;2.28;;
22007;SDS011;11168;56.976;24.168;2022-08-01T10:17:39;4.38;;;2.28;;
22007;SDS011;11168;56.976;24.168;2022-08-01T10:20:17;5.07;;;2.50;;
22007;SDS011;11168;56.976;24.168;2022-08-01T10:22:58;5.53;;;2.35;;
22007;SDS011;11168;56.976;24.168;2022-08-01T10:28:14;2.45;;;2.25;;
22007;SDS011;11168;56.976;24.168;2022-08-01T10:30:49;2.42;;;2.22;;
22007;SDS011;11168;56.976;24.168;2022-08-01T10:33:18;4.20;;;2.72;;
22007;SDS011;11168;56.976;24.168;2022-08-01T10:36:08;3.83;;;2.85;;
22007;SDS011;11168;56.976;24.168;2022-08-01T10:38:36;5.35;;;3.47;;
22007;SDS011;11168;56.976;24.168;2022-08-01T10:41:04;3.75;;;3.40;;
22007;SDS011;11168;56.976;24.168;2022-08-01T10:43:34;4.20;;;3.65;;
22007;SDS011;11168;56.976;24.168;2022-08-01T10:46:03;5.15;;;3.17;;
22007;SDS011;11168;56.976;24.168;2022-08-01T10:48:49;6.10;;;3.67;;
22007;SDS011;11168;56.976;24.168;2022-08-01T10:51:18;7.35;;;3.55;;
22007;SDS011;11168;56.976;24.168;2022-08-01T10:53:53;4.30;;;3.90;;
22007;SDS011;11168;56.976;24.168;2022-08-01T10:56:21;3.95;;;3.47;;
22007;SDS011;11168;56.976;24.168;2022-08-01T10:58:55;3.17;;;2.83;;
22007;SDS011;11168;56.976;24.168;2022-08-01T11:01:32;3.35;;;2.85;;
22007;SDS011;11168;56.976;24.168;2022-08-01T11:04:12;3.17;;;2.80;;
22007;SDS011;11168;56.976;24.168;2022-08-01T11:06:48;2.63;;;2.42;;
22007;SDS011;11168;56.976;24.168;2022-08-01T11:12:07;5.40;;;3.30;;
22007;SDS011;11168;56.976;24.168;2022-08-01T11:20:13;3.25;;;2.95;;
22007;SDS011;11168;56.976;24.168;2022-08-01T11:28:23;3.78;;;2.97;;
22007;SDS011;11168;56.976;24.168;2022-08-01T11:38:43;2.88;;;2.60;;
22007;SDS011;11168;56.976;24.168;2022-08-01T11:41:11;3.88;;;2.70;;
22007;SDS011;11168;56.976;24.168;2022-08-01T11:52:25;3.60;;;3.03;;
22007;SDS011;11168;56.976;24.168;2022-08-01T11:54:55;3.47;;;3.00;;
22007;SDS011;11168;56.976;24.168;2022-08-01T11:57:26;4.47;;;3.30;;
22007;SDS011;11168;56.976;24.168;2022-08-01T12:00:00;5.47;;;4.28;;
22007;SDS011;11168;56.976;24.168;2022-08-01T12:02:31;4.60;;;3.80;;
22007;SDS011;11168;56.976;24.168;2022-08-01T12:07:30;4.90;;;3.22;;
22007;SDS011;11168;56.976;24.168;2022-08-01T12:10:06;4.32;;;3.78;;
22007;SDS011;11168;56.976;24.168;2022-08-01T12:12:34;3.72;;;3.40;;
22007;SDS011;11168;56.976;24.168;2022-08-01T12:15:03;4.18;;;3.70;;
22007;SDS011;11168;56.976;24.168;2022-08-01T12:17:41;6.70;;;4.18;;
22007;SDS011;11168;56.976;24.168;2022-08-01T12:20:24;6.03;;;4.55;;
22007;SDS011;11168;56.976;24.168;2022-08-01T12:22:56;5.75;;;4.05;;
22007;SDS011;11168;56.976;24.168;2022-08-01T12:25:23;6.32;;;4.65;;
22007;SDS011;11168;56.976;24.168;2022-08-01T12:27:52;8.00;;;7.20;;
22007;SDS011;11168;56.976;24.168;2022-08-01T12:30:22;10.93;;;9.82;;
22007;SDS011;11168;56.976;24.168;2022-08-01T12:32:51;11.00;;;9.90;;
22007;SDS011;11168;56.976;24.168;2022-08-01T12:35:19;10.07;;;9.07;;
22007;SDS011;11168;56.976;24.168;2022-08-01T12:37:51;14.10;;;9.77;;
22007;SDS011;11168;56.976;24.168;2022-08-01T12:42:49;10.27;;;8.95;;
22007;SDS011;11168;56.976;24.168;2022-08-01T12:45:18;13.45;;;9.75;;
22007;SDS011;11168;56.976;24.168;2022-08-01T12:47:46;12.93;;;10.07;;
22007;SDS011;11168;56.976;24.168;2022-08-01T12:50:14;11.93;;;10.68;;
22007;SDS011;11168;56.976;24.168;2022-08-01T12:52:42;19.15;;;13.60;;
22007;SDS011;11168;56.976;24.168;2022-08-01T12:57:41;13.60;;;11.57;;
22007;SDS011;11168;56.976;24.168;2022-08-01T13:02:47;11.70;;;7.55;;
22007;SDS011;11168;56.976;24.168;2022-08-01T13:05:15;7.72;;;6.10;;
22007;SDS011;11168;56.976;24.168;2022-08-01T13:07:47;5.85;;;5.35;;
22007;SDS011;11168;56.976;24.168;2022-08-01T13:10:15;4.78;;;4.28;;
22007;SDS011;11168;56.976;24.168;2022-08-01T13:12:51;4.43;;;3.75;;
22007;SDS011;11168;56.976;24.168;2022-08-01T13:17:46;4.93;;;3.63;;
22007;SDS011;11168;56.976;24.168;2022-08-01T13:20:21;3.78;;;3.30;;
22007;SDS011;11168;56.976;24.168;2022-08-01T13:22:48;3.75;;;3.42;;
22007;SDS011;11168;56.976;24.168;2022-08-01T13:25:16;3.78;;;2.97;;
22007;SDS011;11168;56.976;24.168;2022-08-01T13:27:48;3.30;;;3.00;;
22007;SDS011;11168;56.976;24.168;2022-08-01T13:32:59;3.13;;;2.53;;
22007;SDS011;11168;56.976;24.168;2022-08-01T13:35:26;2.33;;;2.23;;
22007;SDS011;11168;56.976;24.168;2022-08-01T13:37:54;3.25;;;1.88;;
22007;SDS011;11168;56.976;24.168;2022-08-01T13:40:27;4.10;;;2.25;;
22007;SDS011;11168;56.976;24.168;2022-08-01T13:42:54;2.85;;;2.00;;
22007;SDS011;11168;56.976;24.168;2022-08-01T13:45:23;1.83;;;1.73;;
22007;SDS011;11168;56.976;24.168;2022-08-01T13:47:51;2.15;;;1.92;;
22007;SDS011;11168;56.976;24.168;2022-08-01T13:50:39;2.10;;;1.80;;
22007;SDS011;11168;56.976;24.168;2022-08-01T13:53:06;2.58;;;1.40;;
22007;SDS011;11168;56.976;24.168;2022-08-01T13:55:35;2.55;;;1.20;;
22007;SDS011;11168;56.976;24.168;2022-08-01T13:58:02;2.63;;;1.30;;
22007;SDS011;11168;56.976;24.168;2022-08-01T14:00:29;1.65;;;1.35;;
22007;SDS011;11168;56.976;24.168;2022-08-01T14:02:57;1.98;;;1.80;;
22007;SDS011;11168;56.976;24.168;2022-08-01T14:05:24;1.50;;;1.40;;
22007;SDS011;11168;56.976;24.168;2022-08-01T14:07:51;3.70;;;1.60;;
22007;SDS011;11168;56.976;24.168;2022-08-01T14:10:22;3.23;;;1.50;;
22007;SDS011;11168;56.976;24.168;2022-08-01T14:12:49;3.03;;;1.70;;
22007;SDS011;11168;56.976;24.168;2022-08-01T14:15:17;2.53;;;1.40;;
22007;SDS011;11168;56.976;24.168;2022-08-01T14:18:05;1.55;;;1.35;;
22007;SDS011;11168;56.976;24.168;2022-08-01T14:20:36;1.73;;;1.23;;
22007;SDS011;11168;56.976;24.168;2022-08-01T14:23:04;3.45;;;1.60;;
22007;SDS011;11168;56.976;24.168;2022-08-01T14:25:35;1.13;;;0.90;;
22007;SDS011;11168;56.976;24.168;2022-08-01T14:28:23;1.75;;;1.30;;
22007;SDS011;11168;56.976;24.168;2022-08-01T14:30:51;1.90;;;1.25;;
22007;SDS011;11168;56.976;24.168;2022-08-01T14:33:18;1.08;;;0.90;;
22007;SDS011;11168;56.976;24.168;2022-08-01T14:35:46;1.10;;;1.00;;
22007;SDS011;11168;56.976;24.168;2022-08-01T14:38:33;1.30;;;1.20;;
22007;SDS011;11168;56.976;24.168;2022-08-01T14:41:01;3.08;;;1.13;;
22007;SDS011;11168;56.976;24.168;2022-08-01T14:43:29;1.75;;;0.98;;
22007;SDS011;11168;56.976;24.168;2022-08-01T14:46:02;1.20;;;1.10;;
22007;SDS011;11168;56.976;24.168;2022-08-01T14:48:31;1.20;;;1.10;;
22007;SDS011;11168;56.976;24.168;2022-08-01T14:50:58;2.65;;;1.25;;
22007;SDS011;11168;56.976;24.168;2022-08-01T14:53:29;1.55;;;1.27;;
22007;SDS011;11168;56.976;24.168;2022-08-01T14:56:01;1.40;;;1.30;;
22007;SDS011;11168;56.976;24.168;2022-08-01T14:58:28;1.85;;;1.38;;
22007;SDS011;11168;56.976;24.168;2022-08-01T15:00:56;1.48;;;1.38;;
22007;SDS011;11168;56.976;24.168;2022-08-01T15:03:25;2.35;;;1.55;;
22007;SDS011;11168;56.976;24.168;2022-08-01T15:05:52;1.92;;;1.40;;
22007;SDS011;11168;56.976;24.168;2022-08-01T15:08:20;1.83;;;1.52;;
22007;SDS011;11168;56.976;24.168;2022-08-01T15:10:47;2.05;;;1.42;;
22007;SDS011;11168;56.976;24.168;2022-08-01T15:13:14;1.70;;;1.60;;
22007;SDS011;11168;56.976;24.168;2022-08-01T15:15:41;1.40;;;1.30;;
22007;SDS011;11168;56.976;24.168;2022-08-01T15:18:09;1.77;;;1.30;;
22007;SDS011;11168;56.976;24.168;2022-08-01T15:20:36;2.90;;;1.10;;
22007;SDS011;11168;56.976;24.168;2022-08-01T15:23:03;1.80;;;1.20;;
22007;SDS011;11168;56.976;24.168;2022-08-01T15:25:31;1.63;;;1.38;;
22007;SDS011;11168;56.976;24.168;2022-08-01T15:28:10;1.25;;;1.10;;
22007;SDS011;11168;56.976;24.168;2022-08-01T15:30:38;1.48;;;1.30;;
22007;SDS011;11168;56.976;24.168;2022-08-01T15:33:05;1.98;;;1.20;;
22007;SDS011;11168;56.976;24.168;2022-08-01T15:35:33;1.30;;;1.20;;
22007;SDS011;11168;56.976;24.168;2022-08-01T15:38:00;1.20;;;1.10;;
22007;SDS011;11168;56.976;24.168;2022-08-01T15:40:28;2.67;;;2.10;;
22007;SDS011;11168;56.976;24.168;2022-08-01T15:42:55;1.92;;;1.50;;
22007;SDS011;11168;56.976;24.168;2022-08-01T15:45:23;1.50;;;1.40;;
22007;SDS011;11168;56.976;24.168;2022-08-01T15:48:11;4.45;;;4.05;;
22007;SDS011;11168;56.976;24.168;2022-08-01T15:50:38;6.40;;;3.35;;
22007;SDS011;11168;56.976;24.168;2022-08-01T15:53:06;2.95;;;2.60;;
22007;SDS011;11168;56.976;24.168;2022-08-01T15:55:37;2.60;;;2.30;;
22007;SDS011;11168;56.976;24.168;2022-08-01T15:58:05;3.10;;;2.80;;